createdAt,value
2018-04-25T00:00:45.276Z,32.17
2018-04-25T00:03:13.716Z,36.67
2018-04-25T00:05:42.185Z,37.30
2018-04-25T00:08:10.616Z,35.77
2018-04-25T00:10:39.043Z,35.13
2018-04-25T00:13:07.544Z,34.93
2018-04-25T00:15:36.004Z,37.50
2018-04-25T00:18:04.445Z,36.73
2018-04-25T00:20:32.946Z,36.83
2018-04-25T00:23:01.368Z,39.13
2018-04-25T00:25:29.816Z,35.83
2018-04-25T00:27:58.300Z,34.07
2018-04-25T00:30:26.722Z,40.23
2018-04-25T00:32:55.138Z,37.03
2018-04-25T00:35:23.619Z,33.23
2018-04-25T00:37:52.044Z,36.63
2018-04-25T00:40:20.461Z,39.03
2018-04-25T00:42:48.964Z,36.07
2018-04-25T00:45:17.420Z,40.90
2018-04-25T00:47:45.873Z,37.80
2018-04-25T00:50:14.352Z,39.87
2018-04-25T00:52:42.812Z,38.67
2018-04-25T00:55:11.264Z,37.90
2018-04-25T00:57:39.772Z,39.07
2018-04-25T01:00:08.227Z,36.27
2018-04-25T01:02:36.677Z,34.87
2018-04-25T01:05:05.172Z,34.57
2018-04-25T01:07:33.616Z,37.77
2018-04-25T01:10:02.073Z,40.93
2018-04-25T01:12:30.576Z,36.93
2018-04-25T01:14:59.008Z,40.53
2018-04-25T01:17:27.477Z,40.60
2018-04-25T01:19:55.981Z,37.50
2018-04-25T01:22:24.436Z,39.17
2018-04-25T01:24:57.248Z,40.30
2018-04-25T01:27:25.704Z,34.37
2018-04-25T01:29:54.161Z,37.70
2018-04-25T01:32:22.672Z,38.03
2018-04-25T01:34:54.633Z,38.83
2018-04-25T01:37:32.692Z,40.73
2018-04-25T01:40:01.145Z,39.37
2018-04-25T01:45:29.395Z,38.20
2018-04-25T01:48:10.439Z,39.90
2018-04-25T01:50:38.896Z,37.67
2018-04-25T01:53:19.205Z,39.17
2018-04-25T01:55:59.352Z,39.63
2018-04-25T01:58:39.538Z,40.30
2018-04-25T02:01:19.612Z,35.83
2018-04-25T02:03:54.621Z,38.63
2018-04-25T02:06:23.045Z,40.17
2018-04-25T02:08:51.557Z,39.27
2018-04-25T02:11:19.965Z,38.60
2018-04-25T02:13:48.380Z,37.97
2018-04-25T02:16:16.800Z,38.40
2018-04-25T02:18:45.252Z,36.70
2018-04-25T02:21:13.680Z,36.03
2018-04-25T02:23:42.099Z,33.70
2018-04-25T02:26:10.548Z,38.50
2018-04-25T02:28:38.964Z,37.23
2018-04-25T02:31:07.384Z,36.70
2018-04-25T02:33:35.860Z,33.40
2018-04-25T02:36:04.284Z,37.60
2018-04-25T02:38:32.730Z,34.70
2018-04-25T02:41:01.202Z,34.77
2018-04-25T02:43:29.616Z,33.43
2018-04-25T02:45:58.037Z,33.20
2018-04-25T02:48:26.488Z,29.97
2018-04-25T02:50:54.913Z,32.30
2018-04-25T02:53:23.357Z,31.10
2018-04-25T02:55:51.820Z,30.80
2018-04-25T02:58:20.248Z,27.53
2018-04-25T03:00:48.915Z,29.47
2018-04-25T03:03:17.397Z,29.40
2018-04-25T03:05:45.821Z,27.80
2018-04-25T03:08:14.252Z,29.30
2018-04-25T03:10:42.716Z,28.77
2018-04-25T03:13:11.141Z,25.50
2018-04-25T03:15:39.572Z,27.97
2018-04-25T03:18:08.039Z,25.17
2018-04-25T03:20:36.456Z,23.77
2018-04-25T03:23:04.878Z,22.33
2018-04-25T03:25:33.346Z,22.27
2018-04-25T03:28:01.760Z,22.80
2018-04-25T03:30:30.184Z,22.80
2018-04-25T03:32:58.644Z,21.77
2018-04-25T03:35:27.065Z,20.70
2018-04-25T03:37:55.485Z,20.23
2018-04-25T03:40:23.944Z,18.83
2018-04-25T03:42:52.370Z,18.73
2018-04-25T03:45:20.820Z,17.67
2018-04-25T03:47:49.287Z,17.57
2018-04-25T03:50:17.712Z,16.33
2018-04-25T03:52:46.143Z,16.87
2018-04-25T03:55:14.623Z,15.83
2018-04-25T03:57:43.036Z,15.60
2018-04-25T04:00:11.472Z,15.53
2018-04-25T04:02:39.948Z,15.20
2018-04-25T04:05:08.376Z,15.00
2018-04-25T04:07:36.808Z,15.17
2018-04-25T04:10:05.268Z,14.47
2018-04-25T04:12:33.684Z,14.63
2018-04-25T04:15:02.108Z,14.43
2018-04-25T04:17:30.567Z,13.93
2018-04-25T04:19:58.990Z,12.90
2018-04-25T04:22:27.489Z,13.67
2018-04-25T04:24:55.990Z,12.73
2018-04-25T04:27:24.384Z,13.07
2018-04-25T04:29:52.807Z,12.50
2018-04-25T04:32:21.305Z,12.73
2018-04-25T04:34:49.748Z,11.63
2018-04-25T04:37:18.166Z,12.13
2018-04-25T04:39:46.628Z,11.17
2018-04-25T04:42:15.064Z,11.90
2018-04-25T04:44:43.493Z,11.90
2018-04-25T04:47:11.956Z,11.23
2018-04-25T04:49:40.388Z,10.43
2018-04-25T04:52:08.811Z,10.30
2018-04-25T04:54:37.272Z,10.50
2018-04-25T04:57:05.730Z,8.97
2018-04-25T04:59:34.148Z,8.60
2018-04-25T05:02:02.612Z,9.33
2018-04-25T05:04:31.068Z,8.20
2018-04-25T05:06:59.508Z,8.57
2018-04-25T05:09:27.972Z,8.03
2018-04-25T05:11:56.405Z,8.33
2018-04-25T05:14:24.826Z,8.10
2018-04-25T05:16:53.288Z,7.90
2018-04-25T05:19:21.696Z,7.60
2018-04-25T05:21:50.107Z,7.77
2018-04-25T05:24:18.599Z,7.97
2018-04-25T05:26:46.988Z,7.37
2018-04-25T05:29:15.408Z,8.20
2018-04-25T05:31:43.880Z,7.70
2018-04-25T05:34:12.348Z,7.87
2018-04-25T05:36:40.748Z,7.80
2018-04-25T05:39:09.200Z,8.23
2018-04-25T05:41:37.612Z,7.70
2018-04-25T05:44:06.029Z,7.80
2018-04-25T05:46:34.490Z,8.23
2018-04-25T05:49:02.900Z,7.60
2018-04-25T05:51:31.340Z,8.20
2018-04-25T05:53:59.792Z,7.03
2018-04-25T05:56:28.200Z,6.97
2018-04-25T05:58:56.609Z,7.60
2018-04-25T06:01:25.069Z,7.67
2018-04-25T06:03:53.488Z,7.53
2018-04-25T06:06:21.903Z,7.07
2018-04-25T06:08:50.397Z,8.30
2018-04-25T06:11:18.806Z,7.77
2018-04-25T06:13:47.241Z,6.73
2018-04-25T06:16:15.805Z,8.03
2018-04-25T06:18:44.733Z,7.10
2018-04-25T06:21:14.027Z,7.07
2018-04-25T06:23:42.512Z,7.90
2018-04-25T06:26:10.936Z,7.73
2018-04-25T06:28:39.360Z,7.50
2018-04-25T06:31:07.816Z,7.00
2018-04-25T06:33:36.240Z,8.50
2018-04-25T06:36:04.667Z,8.30
2018-04-25T06:38:33.128Z,8.03
2018-04-25T06:41:01.549Z,8.63
2018-04-25T06:43:29.971Z,8.17
2018-04-25T06:45:58.452Z,9.00
2018-04-25T06:48:26.882Z,7.97
2018-04-25T06:50:55.299Z,8.10
2018-04-25T06:53:23.760Z,7.90
2018-04-25T06:55:52.176Z,7.90
2018-04-25T06:58:20.596Z,8.13
2018-04-25T07:00:49.074Z,7.80
2018-04-25T07:03:17.476Z,7.37
2018-04-25T07:05:45.896Z,7.43
2018-04-25T07:08:14.366Z,7.57
2018-04-25T07:10:42.818Z,8.00
2018-04-25T07:13:11.239Z,7.50
2018-04-25T07:15:39.714Z,7.77
2018-04-25T07:18:08.149Z,6.47
2018-04-25T07:20:36.589Z,6.93
2018-04-25T07:23:05.065Z,6.83
2018-04-25T07:25:33.476Z,6.70
2018-04-25T07:28:01.885Z,6.03
2018-04-25T07:30:30.551Z,6.40
2018-04-25T07:32:58.968Z,6.10
2018-04-25T07:35:27.462Z,5.77
2018-04-25T07:37:55.953Z,5.70
2018-04-25T07:40:24.372Z,6.00
2018-04-25T07:42:52.801Z,6.20
2018-04-25T07:45:21.248Z,5.97
2018-04-25T07:47:49.668Z,7.03
2018-04-25T07:50:18.084Z,6.90
2018-04-25T07:52:46.548Z,7.23
2018-04-25T07:55:14.976Z,7.40
2018-04-25T07:57:43.459Z,6.93
2018-04-25T08:00:11.865Z,7.47
2018-04-25T08:02:40.291Z,6.90
2018-04-25T08:05:08.708Z,6.83
2018-04-25T08:07:37.152Z,6.33
2018-04-25T08:10:05.567Z,6.27
2018-04-25T08:12:45.904Z,6.83
2018-04-25T08:15:25.983Z,6.23
2018-04-25T08:18:06.132Z,7.93
2018-04-25T08:20:45.268Z,7.53
2018-04-25T08:23:13.748Z,5.90
2018-04-25T08:25:42.161Z,5.73
2018-04-25T08:28:10.578Z,4.20
2018-04-25T08:30:39.033Z,2.70
2018-04-25T08:33:07.449Z,2.43
2018-04-25T08:35:35.864Z,2.80
2018-04-25T08:38:04.345Z,2.77
2018-04-25T08:40:32.760Z,2.27
2018-04-25T08:43:01.168Z,2.47
2018-04-25T08:45:29.617Z,2.37
2018-04-25T08:47:58.029Z,2.20
2018-04-25T08:50:26.452Z,2.30
2018-04-25T08:52:54.906Z,2.10
2018-04-25T08:55:23.316Z,2.20
2018-04-25T08:57:51.724Z,2.40
2018-04-25T09:00:20.180Z,2.50
2018-04-25T09:02:48.585Z,2.23
2018-04-25T09:05:17.019Z,2.30
2018-04-25T09:07:45.472Z,2.27
2018-04-25T09:10:13.889Z,2.73
2018-04-25T09:12:42.296Z,2.20
2018-04-25T09:15:10.936Z,2.40
2018-04-25T09:17:39.331Z,2.63
2018-04-25T09:20:07.732Z,2.23
2018-04-25T09:22:36.204Z,2.23
2018-04-25T09:25:04.812Z,2.27
2018-04-25T09:27:33.248Z,2.10
2018-04-25T09:30:01.795Z,2.10
2018-04-25T09:32:30.200Z,2.20
2018-04-25T09:34:58.605Z,2.20
2018-04-25T09:37:27.077Z,2.50
2018-04-25T09:39:55.512Z,2.00
2018-04-25T09:42:23.925Z,2.67
2018-04-25T09:44:52.367Z,2.73
2018-04-25T09:47:20.772Z,2.50
2018-04-25T09:49:49.212Z,2.23
2018-04-25T09:52:17.667Z,2.80
2018-04-25T09:54:46.067Z,2.63
2018-04-25T09:57:14.478Z,2.80
2018-04-25T09:59:42.934Z,2.87
2018-04-25T10:02:16.960Z,3.17
2018-04-25T10:04:45.408Z,1.80
2018-04-25T10:07:13.818Z,1.43
2018-04-25T10:09:42.228Z,1.50
2018-04-25T10:12:10.702Z,2.10
2018-04-25T10:14:39.116Z,2.30
2018-04-25T10:17:07.580Z,2.40
2018-04-25T10:19:36.016Z,2.30
2018-04-25T10:22:04.434Z,2.40
2018-04-25T10:24:32.852Z,2.10
2018-04-25T10:27:01.308Z,2.57
2018-04-25T10:29:29.712Z,2.23
2018-04-25T10:31:58.176Z,3.13
2018-04-25T10:34:26.613Z,3.53
2018-04-25T10:36:55.027Z,2.93
2018-04-25T10:39:23.473Z,3.77
2018-04-25T10:41:51.984Z,3.30
2018-04-25T10:44:20.426Z,3.40
2018-04-25T10:46:48.836Z,3.83
2018-04-25T10:49:17.283Z,3.33
2018-04-25T10:51:45.700Z,3.27
2018-04-25T10:54:14.113Z,3.07
2018-04-25T10:56:42.561Z,3.47
2018-04-25T10:59:10.989Z,2.90
2018-04-25T11:01:39.412Z,2.40
2018-04-25T11:04:07.855Z,2.60
2018-04-25T11:06:36.296Z,2.40
2018-04-25T11:09:04.734Z,2.13
2018-04-25T11:11:33.186Z,2.30
2018-04-25T11:14:01.606Z,2.40
2018-04-25T11:16:30.032Z,2.13
2018-04-25T11:18:58.488Z,2.07
2018-04-25T11:21:26.902Z,1.83
2018-04-25T11:23:55.327Z,2.13
2018-04-25T11:26:23.792Z,1.80
2018-04-25T11:28:52.199Z,1.70
2018-04-25T11:31:20.613Z,1.60
2018-04-25T11:33:49.080Z,1.70
2018-04-25T11:36:17.492Z,1.60
2018-04-25T11:38:45.908Z,1.80
2018-04-25T11:41:14.429Z,1.30
2018-04-25T11:43:42.824Z,1.57
2018-04-25T11:46:11.235Z,1.77
2018-04-25T11:48:39.700Z,1.67
2018-04-25T11:51:08.119Z,1.20
2018-04-25T11:53:36.532Z,1.47
2018-04-25T11:56:05.006Z,1.30
2018-04-25T11:58:33.416Z,1.37
2018-04-25T12:01:01.835Z,1.40
2018-04-25T12:03:30.280Z,1.30
2018-04-25T12:05:58.696Z,1.60
2018-04-25T12:08:27.107Z,1.20
2018-04-25T12:10:55.572Z,1.40
2018-04-25T12:13:24.080Z,1.47
2018-04-25T12:15:52.440Z,1.33
2018-04-25T12:18:20.889Z,1.50
2018-04-25T12:20:49.311Z,1.80
2018-04-25T12:23:17.735Z,1.40
2018-04-25T12:25:46.201Z,1.27
2018-04-25T12:28:14.616Z,1.23
2018-04-25T12:30:43.029Z,1.27
2018-04-25T12:33:11.481Z,1.30
2018-04-25T12:35:39.892Z,1.43
2018-04-25T12:38:08.308Z,1.23
2018-04-25T12:40:36.763Z,1.40
2018-04-25T12:43:05.197Z,1.37
2018-04-25T12:45:33.613Z,0.80
2018-04-25T12:48:02.074Z,1.07
2018-04-25T12:50:30.479Z,0.90
2018-04-25T12:52:58.896Z,1.17
2018-04-25T12:55:27.359Z,1.10
2018-04-25T12:57:55.785Z,0.90
2018-04-25T13:00:24.228Z,1.03
2018-04-25T13:02:52.704Z,1.00
2018-04-25T13:05:21.113Z,1.20
2018-04-25T13:07:49.515Z,1.20
2018-04-25T13:10:18.005Z,1.00
2018-04-25T13:12:46.436Z,1.00
2018-04-25T13:15:14.852Z,1.30
2018-04-25T13:17:43.304Z,1.20
2018-04-25T13:20:11.720Z,1.10
2018-04-25T13:22:40.152Z,1.00
2018-04-25T13:25:08.612Z,1.10
2018-04-25T13:27:37.027Z,1.10
2018-04-25T13:30:05.460Z,1.30
2018-04-25T13:32:33.914Z,1.30
2018-04-25T13:35:02.320Z,1.40
2018-04-25T13:37:30.728Z,1.60
2018-04-25T13:39:59.184Z,1.40
2018-04-25T13:42:27.588Z,1.50
2018-04-25T13:44:56.034Z,1.37
2018-04-25T13:47:24.473Z,1.30
2018-04-25T13:49:52.875Z,1.33
2018-04-25T13:52:21.285Z,1.40
2018-04-25T13:54:49.728Z,1.60
2018-04-25T13:57:18.132Z,1.33
2018-04-25T13:59:46.548Z,1.53
2018-04-25T14:02:15.013Z,1.30
2018-04-25T14:04:43.431Z,1.40
2018-04-25T14:07:11.848Z,1.63
2018-04-25T14:09:40.298Z,1.60
2018-04-25T14:12:08.708Z,1.60
2018-04-25T14:14:37.108Z,1.17
2018-04-25T14:17:05.555Z,1.50
2018-04-25T14:19:33.962Z,1.50
2018-04-25T14:22:02.366Z,1.73
2018-04-25T14:24:30.817Z,1.40
2018-04-25T14:26:59.233Z,1.30
2018-04-25T14:29:27.640Z,1.53
2018-04-25T14:31:56.100Z,1.50
2018-04-25T14:34:24.509Z,1.63
2018-04-25T14:36:52.920Z,1.40
2018-04-25T14:39:21.383Z,1.30
2018-04-25T14:41:49.796Z,1.77
2018-04-25T14:44:18.211Z,1.60
2018-04-25T14:46:46.655Z,1.60
2018-04-25T14:49:15.069Z,1.40
2018-04-25T14:51:43.463Z,1.50
2018-04-25T14:54:11.919Z,1.30
2018-04-25T14:56:40.318Z,1.73
2018-04-25T14:59:08.728Z,1.73
2018-04-25T15:01:37.193Z,1.90
2018-04-25T15:04:05.588Z,1.93
2018-04-25T15:06:34.000Z,1.60
2018-04-25T15:09:02.449Z,1.80
2018-04-25T15:11:30.876Z,1.70
2018-04-25T15:13:59.292Z,1.90
2018-04-25T15:16:27.756Z,1.50
2018-04-25T15:18:56.160Z,1.60
2018-04-25T15:21:24.557Z,1.77
2018-04-25T15:23:53.024Z,1.70
2018-04-25T15:26:21.449Z,1.23
2018-04-25T15:28:49.860Z,1.47
2018-04-25T15:31:18.332Z,1.60
2018-04-25T15:33:46.744Z,1.77
2018-04-25T15:36:15.161Z,1.90
2018-04-25T15:38:43.618Z,1.60
2018-04-25T15:41:12.035Z,1.90
2018-04-25T15:43:40.431Z,1.70
2018-04-25T15:46:08.895Z,1.90
2018-04-25T15:48:37.332Z,2.00
2018-04-25T15:51:05.743Z,1.73
2018-04-25T15:53:34.223Z,2.03
2018-04-25T15:56:02.652Z,1.87
2018-04-25T15:58:31.063Z,1.80
2018-04-25T16:00:59.509Z,1.90
2018-04-25T16:03:27.924Z,2.00
2018-04-25T16:05:56.350Z,2.47
2018-04-25T16:08:24.812Z,2.10
2018-04-25T16:10:53.224Z,1.90
2018-04-25T16:13:21.635Z,2.47
2018-04-25T16:15:50.084Z,3.13
2018-04-25T16:18:18.524Z,2.80
2018-04-25T16:20:46.924Z,2.83
2018-04-25T16:23:15.380Z,3.00
2018-04-25T16:25:43.793Z,5.23
2018-04-25T16:28:12.207Z,2.77
2018-04-25T16:30:40.681Z,2.67
2018-04-25T16:33:09.103Z,4.10
2018-04-25T16:35:37.586Z,2.60
2018-04-25T16:38:06.022Z,2.43
2018-04-25T16:40:34.438Z,2.67
2018-04-25T16:43:02.865Z,3.77
2018-04-25T16:45:31.352Z,2.90
2018-04-25T16:47:59.764Z,2.47
2018-04-25T16:50:28.237Z,2.43
2018-04-25T16:52:56.688Z,3.23
2018-04-25T16:55:25.104Z,2.63
2018-04-25T16:57:53.528Z,3.23
2018-04-25T17:00:21.984Z,4.33
2018-04-25T17:02:50.411Z,4.80
2018-04-25T17:05:18.821Z,3.10
2018-04-25T17:07:47.296Z,5.07
2018-04-25T17:10:15.713Z,2.80
2018-04-25T17:12:44.143Z,3.00
2018-04-25T17:15:12.608Z,2.80
2018-04-25T17:17:41.020Z,4.33
2018-04-25T17:20:09.447Z,3.33
2018-04-25T17:22:37.917Z,3.37
2018-04-25T17:25:06.357Z,3.50
2018-04-25T17:27:34.781Z,3.73
2018-04-25T17:30:03.313Z,3.63
2018-04-25T17:32:31.729Z,4.23
2018-04-25T17:35:00.136Z,3.67
2018-04-25T17:37:28.624Z,3.43
2018-04-25T17:39:57.041Z,3.90
2018-04-25T17:42:25.449Z,3.87
2018-04-25T17:44:53.907Z,3.27
2018-04-25T17:47:22.318Z,3.70
2018-04-25T17:49:50.765Z,3.90
2018-04-25T17:52:19.231Z,3.80
2018-04-25T17:54:47.655Z,3.80
2018-04-25T17:57:16.069Z,3.57
2018-04-25T17:59:44.516Z,3.97
2018-04-25T18:02:12.933Z,3.97
2018-04-25T18:04:41.348Z,3.37
2018-04-25T18:07:09.812Z,3.63
2018-04-25T18:09:38.232Z,3.67
2018-04-25T18:12:06.641Z,4.23
2018-04-25T18:14:35.090Z,3.40
2018-04-25T18:17:03.588Z,3.67
2018-04-25T18:19:32.000Z,3.50
2018-04-25T18:22:00.492Z,3.50
2018-04-25T18:24:28.913Z,4.10
2018-04-25T18:26:57.332Z,3.90
2018-04-25T18:29:25.773Z,4.00
2018-04-25T18:31:54.188Z,3.97
2018-04-25T18:34:22.612Z,3.60
2018-04-25T18:36:51.083Z,5.33
2018-04-25T18:39:19.532Z,4.40
2018-04-25T18:41:47.956Z,3.50
2018-04-25T18:44:16.420Z,4.17
2018-04-25T18:46:44.837Z,4.00
2018-04-25T18:49:13.259Z,4.13
2018-04-25T18:51:41.719Z,3.80
2018-04-25T18:54:10.149Z,3.50
2018-04-25T18:56:38.589Z,3.83
2018-04-25T18:59:07.050Z,4.13
2018-04-25T19:01:35.477Z,3.60
2018-04-25T19:04:03.894Z,3.93
2018-04-25T19:06:32.397Z,4.70
2018-04-25T19:09:00.809Z,4.27
2018-04-25T19:11:29.228Z,4.90
2018-04-25T19:13:57.809Z,4.33
2018-04-25T19:16:26.236Z,4.10
2018-04-25T19:18:54.656Z,3.67
2018-04-25T19:21:23.132Z,3.10
2018-04-25T19:23:51.548Z,2.70
2018-04-25T19:26:19.968Z,2.60
2018-04-25T19:28:48.422Z,2.30
2018-04-25T19:31:16.837Z,2.60
2018-04-25T19:33:45.251Z,2.30
2018-04-25T19:36:13.704Z,2.77
2018-04-25T19:38:42.121Z,2.67
2018-04-25T19:41:10.537Z,2.50
2018-04-25T19:43:39.004Z,3.00
2018-04-25T19:46:07.433Z,3.20
2018-04-25T19:48:35.853Z,3.00
2018-04-25T19:51:04.309Z,2.83
2018-04-25T19:53:32.719Z,3.00
2018-04-25T19:56:01.144Z,3.23
2018-04-25T19:58:29.599Z,2.70
2018-04-25T20:00:58.017Z,3.03
2018-04-25T20:03:26.432Z,3.10
2018-04-25T20:05:54.889Z,3.50
2018-04-25T20:08:23.323Z,3.00
2018-04-25T20:10:51.764Z,3.30
2018-04-25T20:13:20.259Z,3.43
2018-04-25T20:15:48.675Z,3.37
2018-04-25T20:18:17.097Z,3.60
2018-04-25T20:20:45.626Z,3.77
2018-04-25T20:23:14.042Z,3.23
2018-04-25T20:25:42.472Z,3.10
2018-04-25T20:28:10.940Z,4.17
2018-04-25T20:30:39.361Z,3.77
2018-04-25T20:33:07.784Z,3.60
2018-04-25T20:35:36.253Z,3.57
2018-04-25T20:38:04.693Z,4.03
2018-04-25T20:40:33.119Z,4.30
2018-04-25T20:43:01.600Z,4.00
2018-04-25T20:45:30.031Z,3.83
2018-04-25T20:47:58.448Z,4.23
2018-04-25T20:50:26.907Z,3.90
2018-04-25T20:52:55.340Z,4.00
2018-04-25T20:55:23.762Z,4.20
2018-04-25T20:57:52.216Z,4.30
2018-04-25T21:00:20.636Z,4.30
2018-04-25T21:02:49.048Z,4.00
2018-04-25T21:05:17.734Z,3.90
2018-04-25T21:07:46.144Z,3.63
2018-04-25T21:10:14.573Z,4.37
2018-04-25T21:12:43.024Z,3.70
2018-04-25T21:15:11.436Z,3.93
2018-04-25T21:17:39.869Z,4.50
2018-04-25T21:20:08.329Z,4.43
2018-04-25T21:22:36.748Z,4.60
2018-04-25T21:25:05.166Z,3.90
2018-04-25T21:27:33.633Z,3.83
2018-04-25T21:30:02.071Z,3.80
2018-04-25T21:32:30.496Z,3.73
2018-04-25T21:34:58.946Z,4.50
2018-04-25T21:37:27.358Z,4.57
2018-04-25T21:39:55.770Z,4.67
2018-04-25T21:42:24.215Z,3.83
2018-04-25T21:44:52.626Z,4.40
2018-04-25T21:47:21.036Z,4.27
2018-04-25T21:49:49.511Z,4.40
2018-04-25T21:52:17.937Z,4.50
2018-04-25T21:54:46.340Z,4.60
2018-04-25T21:57:14.792Z,5.10
2018-04-25T21:59:43.192Z,5.40
2018-04-25T22:02:11.600Z,5.07
2018-04-25T22:04:40.068Z,4.87
2018-04-25T22:07:08.482Z,5.33
2018-04-25T22:09:36.900Z,5.20
2018-04-25T22:12:05.355Z,5.63
2018-04-25T22:14:33.781Z,5.67
2018-04-25T22:17:02.212Z,4.93
2018-04-25T22:19:30.688Z,5.87
2018-04-25T22:21:59.117Z,6.10
2018-04-25T22:24:27.517Z,5.67
2018-04-25T22:26:55.976Z,5.80
2018-04-25T22:29:24.396Z,6.00
2018-04-25T22:31:52.800Z,6.17
2018-04-25T22:34:21.244Z,6.47
2018-04-25T22:36:49.657Z,6.10
2018-04-25T22:39:18.064Z,5.67
2018-04-25T22:41:46.577Z,6.50
2018-04-25T22:44:14.944Z,6.37
2018-04-25T22:46:43.353Z,5.03
2018-04-25T22:49:11.809Z,6.27
2018-04-25T22:51:40.220Z,6.20
2018-04-25T22:54:08.632Z,5.73
2018-04-25T22:56:37.085Z,5.23
2018-04-25T22:59:05.496Z,6.10
2018-04-25T23:01:33.913Z,6.20
2018-04-25T23:04:02.373Z,6.17
2018-04-25T23:06:30.788Z,5.77
2018-04-25T23:08:59.197Z,6.50
2018-04-25T23:11:27.663Z,6.53
2018-04-25T23:13:56.068Z,6.13
2018-04-25T23:16:24.480Z,6.00
2018-04-25T23:18:52.965Z,6.67
2018-04-25T23:21:21.380Z,5.70
2018-04-25T23:23:49.793Z,6.23
2018-04-25T23:26:18.256Z,6.40
2018-04-25T23:28:46.672Z,6.33
2018-04-25T23:31:15.083Z,5.97
2018-04-25T23:33:43.544Z,5.70
2018-04-25T23:36:11.961Z,5.60
2018-04-25T23:38:40.371Z,5.63
2018-04-25T23:41:08.856Z,4.70
2018-04-25T23:43:37.273Z,5.97
2018-04-25T23:46:05.700Z,5.30
2018-04-25T23:48:34.163Z,6.77
2018-04-25T23:51:02.579Z,6.40
2018-04-25T23:53:31.024Z,5.60
2018-04-25T23:55:59.501Z,5.37
2018-04-25T23:58:27.913Z,6.10
